sensor_id;sensor_type;location;lat;lon;timestamp;pressure;altitude;pressure_sealevel;temperature;humidity
59487;BME280;45298;54.918;73.504;2022-10-23T00:02:04;98982.22;;;-1.20;89.29
59487;BME280;45298;54.918;73.504;2022-10-23T00:04:33;98948.56;;;-1.55;88.43
59487;BME280;45298;54.918;73.504;2022-10-23T00:07:03;99000.00;;;-1.35;88.71
59487;BME280;45298;54.918;73.504;2022-10-23T00:09:32;99014.53;;;-1.28;88.74
59487;BME280;45298;54.918;73.504;2022-10-23T00:12:01;99018.97;;;-1.31;89.17
59487;BME280;45298;54.918;73.504;2022-10-23T00:14:30;99004.66;;;-1.46;88.95
59487;BME280;45298;54.918;73.504;2022-10-23T00:16:59;99031.31;;;-1.38;89.24
59487;BME280;45298;54.918;73.504;2022-10-23T00:19:28;99055.38;;;-1.30;88.42
59487;BME280;45298;54.918;73.504;2022-10-23T00:21:57;99070.78;;;-1.24;88.56
59487;BME280;45298;54.918;73.504;2022-10-23T00:24:27;99054.88;;;-1.44;89.00
59487;BME280;45298;54.918;73.504;2022-10-23T00:26:56;99047.28;;;-1.50;88.49
59487;BME280;45298;54.918;73.504;2022-10-23T00:29:25;99036.50;;;-1.68;87.84
59487;BME280;45298;54.918;73.504;2022-10-23T00:31:55;99053.75;;;-1.65;87.83
59487;BME280;45298;54.918;73.504;2022-10-23T00:34:25;99047.06;;;-1.74;88.45
59487;BME280;45298;54.918;73.504;2022-10-23T00:36:54;99102.53;;;-1.42;88.25
59487;BME280;45298;54.918;73.504;2022-10-23T00:39:23;99121.28;;;-1.31;87.99
59487;BME280;45298;54.918;73.504;2022-10-23T00:41:51;99108.69;;;-1.46;88.52
59487;BME280;45298;54.918;73.504;2022-10-23T00:46:49;99119.09;;;-1.46;88.73
59487;BME280;45298;54.918;73.504;2022-10-23T00:49:18;99132.91;;;-1.44;88.37
59487;BME280;45298;54.918;73.504;2022-10-23T00:51:55;99146.81;;;-1.45;88.57
59487;BME280;45298;54.918;73.504;2022-10-23T00:54:26;99099.09;;;-1.76;88.09
59487;BME280;45298;54.918;73.504;2022-10-23T00:57:00;99160.78;;;-1.48;87.96
59487;BME280;45298;54.918;73.504;2022-10-23T00:59:30;99177.31;;;-1.50;88.17
59487;BME280;45298;54.918;73.504;2022-10-23T01:01:59;99190.31;;;-1.50;87.72
59487;BME280;45298;54.918;73.504;2022-10-23T01:04:29;99192.94;;;-1.50;87.79
59487;BME280;45298;54.918;73.504;2022-10-23T01:10:09;99222.22;;;-1.44;88.07
59487;BME280;45298;54.918;73.504;2022-10-23T01:12:58;99215.66;;;-1.59;88.02
59487;BME280;45298;54.918;73.504;2022-10-23T01:15:54;99215.81;;;-1.65;87.58
59487;BME280;45298;54.918;73.504;2022-10-23T01:19:06;99251.81;;;-1.48;87.95
59487;BME280;45298;54.918;73.504;2022-10-23T01:22:42;99264.72;;;-1.45;88.39
59487;BME280;45298;54.918;73.504;2022-10-23T01:25:04;99270.06;;;-1.49;88.14
59487;BME280;45298;54.918;73.504;2022-10-23T01:27:41;99266.50;;;-1.47;88.22
59487;BME280;45298;54.918;73.504;2022-10-23T01:30:16;99274.19;;;-1.42;87.85
59487;BME280;45298;54.918;73.504;2022-10-23T01:33:04;99275.13;;;-1.45;87.89
59487;BME280;45298;54.918;73.504;2022-10-23T01:35:48;99279.41;;;-1.42;88.05
59487;BME280;45298;54.918;73.504;2022-10-23T01:38:34;99300.91;;;-1.35;88.02
59487;BME280;45298;54.918;73.504;2022-10-23T01:41:35;99308.81;;;-1.40;87.60
59487;BME280;45298;54.918;73.504;2022-10-23T01:44:12;99353.41;;;-1.19;88.14
59487;BME280;45298;54.918;73.504;2022-10-23T01:46:43;99325.25;;;-1.38;87.24
59487;BME280;45298;54.918;73.504;2022-10-23T01:49:16;99331.34;;;-1.39;88.04
59487;BME280;45298;54.918;73.504;2022-10-23T01:51:53;99341.75;;;-1.39;87.61
59487;BME280;45298;54.918;73.504;2022-10-23T01:54:27;99351.97;;;-1.31;87.25
59487;BME280;45298;54.918;73.504;2022-10-23T01:56:57;99351.94;;;-1.30;87.59
59487;BME280;45298;54.918;73.504;2022-10-23T01:59:33;99341.75;;;-1.39;87.19
59487;BME280;45298;54.918;73.504;2022-10-23T02:02:08;99363.19;;;-1.29;87.88
59487;BME280;45298;54.918;73.504;2022-10-23T02:05:34;99379.44;;;-1.19;87.61
59487;BME280;45298;54.918;73.504;2022-10-23T02:07:38;99384.66;;;-1.19;87.41
59487;BME280;45298;54.918;73.504;2022-10-23T02:10:08;99407.03;;;-1.12;87.65
59487;BME280;45298;54.918;73.504;2022-10-23T02:16:03;99410.59;;;-1.16;87.29
59487;BME280;45298;54.918;73.504;2022-10-23T02:18:49;99417.59;;;-1.18;87.07
59487;BME280;45298;54.918;73.504;2022-10-23T02:21:36;99367.84;;;-1.42;87.07
59487;BME280;45298;54.918;73.504;2022-10-23T02:24:10;99448.59;;;-1.09;87.20
59487;BME280;45298;54.918;73.504;2022-10-23T02:26:56;99426.22;;;-1.16;87.25
59487;BME280;45298;54.918;73.504;2022-10-23T02:29:35;99454.59;;;-1.05;87.42
59487;BME280;45298;54.918;73.504;2022-10-23T02:32:08;99461.63;;;-1.09;87.70
59487;BME280;45298;54.918;73.504;2022-10-23T02:34:40;99453.81;;;-1.09;87.31
59487;BME280;45298;54.918;73.504;2022-10-23T02:37:10;99495.69;;;-0.82;87.29
59487;BME280;45298;54.918;73.504;2022-10-23T02:39:42;99500.88;;;-0.82;87.48
59487;BME280;45298;54.918;73.504;2022-10-23T02:42:26;99506.16;;;-0.85;87.69
59487;BME280;45298;54.918;73.504;2022-10-23T02:45:40;99538.03;;;-0.74;87.24
59487;BME280;45298;54.918;73.504;2022-10-23T02:48:18;99538.03;;;-0.74;87.36
59487;BME280;45298;54.918;73.504;2022-10-23T02:51:14;99550.97;;;-0.71;87.27
59487;BME280;45298;54.918;73.504;2022-10-23T02:54:05;99544.25;;;-0.81;87.15
59487;BME280;45298;54.918;73.504;2022-10-23T02:57:05;99566.50;;;-0.68;87.41
59487;BME280;45298;54.918;73.504;2022-10-23T02:59:49;99563.25;;;-0.76;87.65
59487;BME280;45298;54.918;73.504;2022-10-23T03:02:24;99579.47;;;-0.65;87.30
59487;BME280;45298;54.918;73.504;2022-10-23T03:04:55;99572.91;;;-0.81;87.02
59487;BME280;45298;54.918;73.504;2022-10-23T03:07:25;99560.72;;;-0.79;86.63
59487;BME280;45298;54.918;73.504;2022-10-23T03:10:02;99564.13;;;-0.77;86.83
59487;BME280;45298;54.918;73.504;2022-10-23T03:12:31;99587.34;;;-0.68;87.01
59487;BME280;45298;54.918;73.504;2022-10-23T03:15:03;99620.00;;;-0.51;86.68
59487;BME280;45298;54.918;73.504;2022-10-23T03:17:32;99642.31;;;-0.41;86.88
59487;BME280;45298;54.918;73.504;2022-10-23T03:20:03;99617.66;;;-0.64;86.77
59487;BME280;45298;54.918;73.504;2022-10-23T03:22:32;99630.53;;;-0.57;86.93
59487;BME280;45298;54.918;73.504;2022-10-23T03:25:02;99669.31;;;-0.43;86.81
59487;BME280;45298;54.918;73.504;2022-10-23T03:27:32;99637.72;;;-0.67;86.62
59487;BME280;45298;54.918;73.504;2022-10-23T03:30:04;99664.19;;;-0.48;87.03
59487;BME280;45298;54.918;73.504;2022-10-23T03:32:36;99662.50;;;-0.49;87.04
59487;BME280;45298;54.918;73.504;2022-10-23T03:35:06;99668.41;;;-0.42;86.49
59487;BME280;45298;54.918;73.504;2022-10-23T03:37:35;99664.28;;;-0.51;86.39
59487;BME280;45298;54.918;73.504;2022-10-23T03:40:04;99675.59;;;-0.52;86.40
59487;BME280;45298;54.918;73.504;2022-10-23T03:42:34;99717.69;;;-0.32;86.44
59487;BME280;45298;54.918;73.504;2022-10-23T03:45:03;99704.84;;;-0.39;86.70
59487;BME280;45298;54.918;73.504;2022-10-23T03:47:32;99703.19;;;-0.45;86.88
59487;BME280;45298;54.918;73.504;2022-10-23T03:50:03;99711.00;;;-0.45;86.71
59487;BME280;45298;54.918;73.504;2022-10-23T03:52:33;99712.59;;;-0.38;87.00
59487;BME280;45298;54.918;73.504;2022-10-23T03:55:02;99741.69;;;-0.19;86.98
59487;BME280;45298;54.918;73.504;2022-10-23T03:57:31;99739.19;;;-0.22;86.61
59487;BME280;45298;54.918;73.504;2022-10-23T04:00:00;99754.59;;;-0.12;86.77
59487;BME280;45298;54.918;73.504;2022-10-23T04:02:31;99770.75;;;0.04;86.48
59487;BME280;45298;54.918;73.504;2022-10-23T04:05:00;99767.41;;;-0.02;86.39
59487;BME280;45298;54.918;73.504;2022-10-23T04:07:29;99773.44;;;0.01;85.91
59487;BME280;45298;54.918;73.504;2022-10-23T04:10:03;99774.03;;;0.12;86.01
59487;BME280;45298;54.918;73.504;2022-10-23T04:12:34;99789.41;;;0.24;85.88
59487;BME280;45298;54.918;73.504;2022-10-23T04:15:03;99813.41;;;0.39;85.66
59487;BME280;45298;54.918;73.504;2022-10-23T04:17:32;99818.44;;;0.48;85.69
59487;BME280;45298;54.918;73.504;2022-10-23T04:20:01;99789.09;;;0.37;85.53
59487;BME280;45298;54.918;73.504;2022-10-23T04:22:30;99814.00;;;0.50;85.43
59487;BME280;45298;54.918;73.504;2022-10-23T04:24:59;99792.47;;;0.42;85.08
59487;BME280;45298;54.918;73.504;2022-10-23T04:27:30;99810.69;;;0.43;85.04
59487;BME280;45298;54.918;73.504;2022-10-23T04:29:59;99806.41;;;0.41;84.90
59487;BME280;45298;54.918;73.504;2022-10-23T04:32:28;99849.44;;;0.60;85.35
59487;BME280;45298;54.918;73.504;2022-10-23T04:34:58;99840.16;;;0.49;84.69
59487;BME280;45298;54.918;73.504;2022-10-23T04:37:29;99831.75;;;0.36;85.04
59487;BME280;45298;54.918;73.504;2022-10-23T04:39:59;99842.81;;;0.47;85.09
59487;BME280;45298;54.918;73.504;2022-10-23T04:42:28;99866.94;;;0.55;84.96
59487;BME280;45298;54.918;73.504;2022-10-23T04:45:00;99838.53;;;0.43;85.15
59487;BME280;45298;54.918;73.504;2022-10-23T04:47:29;99859.31;;;0.48;84.99
59487;BME280;45298;54.918;73.504;2022-10-23T04:49:59;99816.44;;;0.20;85.03
59487;BME280;45298;54.918;73.504;2022-10-23T04:52:52;99883.75;;;0.43;85.37
59487;BME280;45298;54.918;73.504;2022-10-23T04:55:51;99893.16;;;0.51;85.31
59487;BME280;45298;54.918;73.504;2022-10-23T04:58:43;99915.03;;;0.45;85.07
59487;BME280;45298;54.918;73.504;2022-10-23T05:01:12;99896.22;;;0.30;84.82
59487;BME280;45298;54.918;73.504;2022-10-23T05:03:41;99913.31;;;0.44;84.76
59487;BME280;45298;54.918;73.504;2022-10-23T05:06:12;99914.16;;;0.46;85.22
59487;BME280;45298;54.918;73.504;2022-10-23T05:08:59;99923.78;;;0.42;85.13
59487;BME280;45298;54.918;73.504;2022-10-23T05:11:44;99936.59;;;0.53;85.18
59487;BME280;45298;54.918;73.504;2022-10-23T05:14:13;99935.84;;;0.48;85.15
59487;BME280;45298;54.918;73.504;2022-10-23T05:16:51;99928.09;;;0.45;85.11
59487;BME280;45298;54.918;73.504;2022-10-23T05:19:26;99953.06;;;0.55;85.21
59487;BME280;45298;54.918;73.504;2022-10-23T05:21:56;99972.78;;;0.69;85.33
59487;BME280;45298;54.918;73.504;2022-10-23T05:24:30;99964.69;;;0.80;85.11
59487;BME280;45298;54.918;73.504;2022-10-23T05:27:01;99952.78;;;0.69;84.68
59487;BME280;45298;54.918;73.504;2022-10-23T05:29:31;99981.97;;;0.87;84.73
59487;BME280;45298;54.918;73.504;2022-10-23T05:32:01;99977.75;;;0.81;84.69
59487;BME280;45298;54.918;73.504;2022-10-23T05:34:34;99996.53;;;0.97;84.43
59487;BME280;45298;54.918;73.504;2022-10-23T05:37:08;99996.41;;;1.02;84.34
59487;BME280;45298;54.918;73.504;2022-10-23T05:39:39;99983.53;;;0.94;84.16
59487;BME280;45298;54.918;73.504;2022-10-23T05:42:12;99986.25;;;0.89;84.41
59487;BME280;45298;54.918;73.504;2022-10-23T05:44:41;99987.97;;;0.90;84.04
59487;BME280;45298;54.918;73.504;2022-10-23T05:47:43;99985.47;;;0.86;83.82
59487;BME280;45298;54.918;73.504;2022-10-23T05:50:45;100007.75;;;1.01;83.78
59487;BME280;45298;54.918;73.504;2022-10-23T05:53:25;100017.19;;;1.07;83.73
59487;BME280;45298;54.918;73.504;2022-10-23T05:56:07;100016.44;;;1.01;83.62
59487;BME280;45298;54.918;73.504;2022-10-23T05:58:44;99982.13;;;0.79;83.90
59487;BME280;45298;54.918;73.504;2022-10-23T06:01:25;100036.06;;;1.19;84.10
59487;BME280;45298;54.918;73.504;2022-10-23T06:04:02;100050.09;;;1.15;83.59
59487;BME280;45298;54.918;73.504;2022-10-23T06:06:51;100057.09;;;1.15;83.85
59487;BME280;45298;54.918;73.504;2022-10-23T06:09:20;100026.09;;;0.98;83.67
59487;BME280;45298;54.918;73.504;2022-10-23T06:11:54;100062.19;;;1.19;83.96
59487;BME280;45298;54.918;73.504;2022-10-23T06:14:23;100080.41;;;1.23;84.00
59487;BME280;45298;54.918;73.504;2022-10-23T06:16:53;100080.50;;;1.18;83.49
59487;BME280;45298;54.918;73.504;2022-10-23T06:19:23;100078.72;;;1.20;83.56
59487;BME280;45298;54.918;73.504;2022-10-23T06:21:55;100108.03;;;1.33;83.25
59487;BME280;45298;54.918;73.504;2022-10-23T06:24:40;100103.94;;;1.21;83.17
59487;BME280;45298;54.918;73.504;2022-10-23T06:27:12;100081.50;;;1.12;83.46
59487;BME280;45298;54.918;73.504;2022-10-23T06:29:42;100100.59;;;1.16;83.35
59487;BME280;45298;54.918;73.504;2022-10-23T06:32:11;100140.28;;;1.32;83.53
59487;BME280;45298;54.918;73.504;2022-10-23T06:34:46;100124.78;;;1.26;83.41
59487;BME280;45298;54.918;73.504;2022-10-23T06:37:14;100119.53;;;1.26;83.57
59487;BME280;45298;54.918;73.504;2022-10-23T06:39:54;100135.88;;;1.34;83.54
59487;BME280;45298;54.918;73.504;2022-10-23T06:42:35;100128.13;;;1.31;83.65
59487;BME280;45298;54.918;73.504;2022-10-23T06:45:24;100141.94;;;1.36;83.16
59487;BME280;45298;54.918;73.504;2022-10-23T06:48:13;100159.47;;;1.31;83.31
59487;BME280;45298;54.918;73.504;2022-10-23T06:50:48;100136.13;;;1.23;83.50
59487;BME280;45298;54.918;73.504;2022-10-23T06:53:21;100137.78;;;1.27;83.09
59487;BME280;45298;54.918;73.504;2022-10-23T06:56:04;100144.84;;;1.24;83.11
59487;BME280;45298;54.918;73.504;2022-10-23T06:58:36;100160.38;;;1.30;82.98
59487;BME280;45298;54.918;73.504;2022-10-23T07:01:15;100202.66;;;1.47;82.82
59487;BME280;45298;54.918;73.504;2022-10-23T07:03:44;100184.59;;;1.38;83.19
59487;BME280;45298;54.918;73.504;2022-10-23T07:06:15;100195.63;;;1.51;83.33
59487;BME280;45298;54.918;73.504;2022-10-23T07:08:44;100185.06;;;1.56;83.28
59487;BME280;45298;54.918;73.504;2022-10-23T07:11:32;100205.63;;;1.71;82.71
59487;BME280;45298;54.918;73.504;2022-10-23T07:14:01;100189.06;;;1.72;83.01
59487;BME280;45298;54.918;73.504;2022-10-23T07:16:30;100179.41;;;1.74;82.57
59487;BME280;45298;54.918;73.504;2022-10-23T07:19:00;100210.38;;;1.93;82.44
59487;BME280;45298;54.918;73.504;2022-10-23T07:21:31;100221.59;;;1.98;82.37
59487;BME280;45298;54.918;73.504;2022-10-23T07:24:25;100212.97;;;1.93;81.64
59487;BME280;45298;54.918;73.504;2022-10-23T07:26:56;100166.72;;;1.57;81.43
59487;BME280;45298;54.918;73.504;2022-10-23T07:29:27;100197.72;;;1.74;81.62
59487;BME280;45298;54.918;73.504;2022-10-23T07:31:57;100203.97;;;1.67;81.42
59487;BME280;45298;54.918;73.504;2022-10-23T07:34:41;100253.94;;;1.94;81.42
59487;BME280;45298;54.918;73.504;2022-10-23T07:37:18;100244.56;;;1.85;80.92
59487;BME280;45298;54.918;73.504;2022-10-23T07:39:47;100258.34;;;1.93;81.17
59487;BME280;45298;54.918;73.504;2022-10-23T07:42:15;100194.69;;;1.54;80.75
59487;BME280;45298;54.918;73.504;2022-10-23T07:44:44;100250.56;;;1.89;80.89
59487;BME280;45298;54.918;73.504;2022-10-23T07:47:13;100259.94;;;1.99;80.89
59487;BME280;45298;54.918;73.504;2022-10-23T07:49:46;100217.81;;;1.72;80.55
59487;BME280;45298;54.918;73.504;2022-10-23T07:52:16;100257.50;;;1.91;80.60
59487;BME280;45298;54.918;73.504;2022-10-23T07:55:08;100145.63;;;1.27;80.94
59487;BME280;45298;54.918;73.504;2022-10-23T07:57:43;100273.84;;;2.01;80.42
59487;BME280;45298;54.918;73.504;2022-10-23T08:00:23;100260.13;;;1.90;80.56
59487;BME280;45298;54.918;73.504;2022-10-23T08:03:00;100268.81;;;1.92;80.72
59487;BME280;45298;54.918;73.504;2022-10-23T08:05:31;100239.69;;;1.70;80.53
59487;BME280;45298;54.918;73.504;2022-10-23T08:08:01;100286.09;;;1.99;80.96
59487;BME280;45298;54.918;73.504;2022-10-23T08:10:30;100284.41;;;1.96;80.92
59487;BME280;45298;54.918;73.504;2022-10-23T08:12:59;100291.53;;;1.90;80.79
59487;BME280;45298;54.918;73.504;2022-10-23T08:15:52;100295.94;;;1.88;80.67
59487;BME280;45298;54.918;73.504;2022-10-23T08:18:41;100303.78;;;1.88;81.05
59487;BME280;45298;54.918;73.504;2022-10-23T08:21:12;100306.31;;;1.91;80.94
59487;BME280;45298;54.918;73.504;2022-10-23T08:23:41;100308.22;;;1.86;80.68
59487;BME280;45298;54.918;73.504;2022-10-23T08:26:10;100303.13;;;1.78;80.75
59487;BME280;45298;54.918;73.504;2022-10-23T08:28:40;100309.16;;;1.81;80.69
59487;BME280;45298;54.918;73.504;2022-10-23T08:31:15;100307.19;;;1.91;80.74
59487;BME280;45298;54.918;73.504;2022-10-23T08:34:02;100322.09;;;1.88;80.48
59487;BME280;45298;54.918;73.504;2022-10-23T08:36:31;100338.53;;;1.94;80.72
59487;BME280;45298;54.918;73.504;2022-10-23T08:39:03;100338.66;;;1.87;81.11
59487;BME280;45298;54.918;73.504;2022-10-23T08:41:36;100342.38;;;1.76;81.32
59487;BME280;45298;54.918;73.504;2022-10-23T08:47:04;100355.69;;;1.65;81.58
59487;BME280;45298;54.918;73.504;2022-10-23T08:50:05;100356.09;;;1.45;82.03
59487;BME280;45298;54.918;73.504;2022-10-23T08:55:35;100371.53;;;1.58;82.19
59487;BME280;45298;54.918;73.504;2022-10-23T08:58:25;100371.63;;;1.51;82.30
59487;BME280;45298;54.918;73.504;2022-10-23T09:00:59;100365.03;;;1.33;82.23
59487;BME280;45298;54.918;73.504;2022-10-23T09:03:28;100360.84;;;1.25;82.00
59487;BME280;45298;54.918;73.504;2022-10-23T09:06:07;100369.63;;;1.20;82.36
59487;BME280;45298;54.918;73.504;2022-10-23T09:09:02;100395.56;;;1.30;82.61
59487;BME280;45298;54.918;73.504;2022-10-23T09:11:44;100387.84;;;1.24;82.86
59487;BME280;45298;54.918;73.504;2022-10-23T09:14:29;100380.22;;;1.11;82.68
59487;BME280;45298;54.918;73.504;2022-10-23T09:17:25;100398.41;;;1.17;82.95
59487;BME280;45298;54.918;73.504;2022-10-23T09:22:48;100411.44;;;1.19;83.14
59487;BME280;45298;54.918;73.504;2022-10-23T09:25:25;100411.38;;;1.22;83.02
59487;BME280;45298;54.918;73.504;2022-10-23T09:27:57;100410.81;;;1.06;83.01
59487;BME280;45298;54.918;73.504;2022-10-23T09:33:12;100438.41;;;1.21;83.09
59487;BME280;45298;54.918;73.504;2022-10-23T09:41:27;100428.38;;;0.95;83.35
59487;BME280;45298;54.918;73.504;2022-10-23T09:44:20;100440.56;;;0.97;83.29
59487;BME280;45298;54.918;73.504;2022-10-23T09:46:52;100461.31;;;1.05;83.44
59487;BME280;45298;54.918;73.504;2022-10-23T09:49:23;100445.88;;;0.89;83.79
59487;BME280;45298;54.918;73.504;2022-10-23T09:52:02;100461.41;;;0.99;83.85
59487;BME280;45298;54.918;73.504;2022-10-23T09:54:35;100461.53;;;0.89;83.78
59487;BME280;45298;54.918;73.504;2022-10-23T09:57:27;100470.25;;;0.88;84.00
59487;BME280;45298;54.918;73.504;2022-10-23T10:00:01;100458.28;;;0.75;84.13
59487;BME280;45298;54.918;73.504;2022-10-23T10:02:37;100471.25;;;0.81;84.11
59487;BME280;45298;54.918;73.504;2022-10-23T10:05:24;100496.34;;;0.92;84.21
59487;BME280;45298;54.918;73.504;2022-10-23T10:08:16;100508.56;;;0.89;84.28
59487;BME280;45298;54.918;73.504;2022-10-23T10:11:06;100503.41;;;0.86;84.75
59487;BME280;45298;54.918;73.504;2022-10-23T10:14:11;100468.88;;;0.66;84.59
59487;BME280;45298;54.918;73.504;2022-10-23T10:16:56;100477.66;;;0.58;84.47
59487;BME280;45298;54.918;73.504;2022-10-23T10:23:06;100517.44;;;0.76;84.91
59487;BME280;45298;54.918;73.504;2022-10-23T10:34:24;100560.97;;;0.77;84.94
59487;BME280;45298;54.918;73.504;2022-10-23T10:36:56;100545.44;;;0.68;84.92
59487;BME280;45298;54.918;73.504;2022-10-23T10:39:46;100567.91;;;0.78;85.06
59487;BME280;45298;54.918;73.504;2022-10-23T10:42:39;100574.03;;;0.77;85.17
59487;BME280;45298;54.918;73.504;2022-10-23T10:45:46;100577.50;;;0.78;85.42
59487;BME280;45298;54.918;73.504;2022-10-23T10:56:27;100576.75;;;0.66;85.77
59487;BME280;45298;54.918;73.504;2022-10-23T10:59:02;100576.88;;;0.58;86.14
59487;BME280;45298;54.918;73.504;2022-10-23T11:07:26;100596.81;;;0.64;86.06
59487;BME280;45298;54.918;73.504;2022-10-23T11:09:58;100618.47;;;0.71;86.30
59487;BME280;45298;54.918;73.504;2022-10-23T11:12:30;100600.41;;;0.54;86.31
59487;BME280;45298;54.918;73.504;2022-10-23T11:14:59;100625.44;;;0.72;86.19
59487;BME280;45298;54.918;73.504;2022-10-23T11:17:38;100624.63;;;0.65;86.13
59487;BME280;45298;54.918;73.504;2022-10-23T11:22:52;100615.16;;;0.56;86.25
59487;BME280;45298;54.918;73.504;2022-10-23T11:26:04;100635.91;;;0.69;86.11
59487;BME280;45298;54.918;73.504;2022-10-23T11:34:32;100668.09;;;0.72;86.35
59487;BME280;45298;54.918;73.504;2022-10-23T11:37:04;100638.72;;;0.52;86.03
59487;BME280;45298;54.918;73.504;2022-10-23T11:39:35;100652.53;;;0.62;85.96
59487;BME280;45298;54.918;73.504;2022-10-23T11:42:14;100653.41;;;0.60;86.20
59487;BME280;45298;54.918;73.504;2022-10-23T11:44:58;100662.94;;;0.65;86.46
59487;BME280;45298;54.918;73.504;2022-10-23T11:47:54;100647.34;;;0.58;86.36
59487;BME280;45298;54.918;73.504;2022-10-23T11:50:29;100669.91;;;0.66;86.53
59487;BME280;45298;54.918;73.504;2022-10-23T11:53:05;100644.91;;;0.43;86.73
59487;BME280;45298;54.918;73.504;2022-10-23T11:56:26;100687.28;;;0.68;86.56
59487;BME280;45298;54.918;73.504;2022-10-23T11:58:56;100685.50;;;0.70;86.58
59487;BME280;45298;54.918;73.504;2022-10-23T12:06:56;100688.28;;;0.53;86.44
59487;BME280;45298;54.918;73.504;2022-10-23T12:14:41;100722.97;;;0.68;86.33
59487;BME280;45298;54.918;73.504;2022-10-23T12:20:01;100687.59;;;0.37;86.28
59487;BME280;45298;54.918;73.504;2022-10-23T12:25:43;100741.25;;;0.66;85.81
59487;BME280;45298;54.918;73.504;2022-10-23T12:39:01;100754.41;;;0.55;85.82
59487;BME280;45298;54.918;73.504;2022-10-23T12:41:32;100744.06;;;0.46;86.10
59487;BME280;45298;54.918;73.504;2022-10-23T12:44:03;100740.66;;;0.36;85.79
59487;BME280;45298;54.918;73.504;2022-10-23T12:46:39;100759.66;;;0.49;85.98
59487;BME280;45298;54.918;73.504;2022-10-23T12:49:15;100751.88;;;0.44;85.98
59487;BME280;45298;54.918;73.504;2022-10-23T12:51:43;100790.97;;;0.52;86.11
59487;BME280;45298;54.918;73.504;2022-10-23T12:54:15;100777.97;;;0.48;85.84
59487;BME280;45298;54.918;73.504;2022-10-23T12:59:37;100806.63;;;0.54;85.82
59487;BME280;45298;54.918;73.504;2022-10-23T13:02:25;100816.19;;;0.53;85.88
59487;BME280;45298;54.918;73.504;2022-10-23T13:04:59;100818.81;;;0.53;86.01
59487;BME280;45298;54.918;73.504;2022-10-23T13:07:30;100805.81;;;0.47;86.20
59487;BME280;45298;54.918;73.504;2022-10-23T13:10:03;100822.28;;;0.52;86.06
59487;BME280;45298;54.918;73.504;2022-10-23T13:12:36;100793.75;;;0.30;86.05
59487;BME280;45298;54.918;73.504;2022-10-23T13:18:11;100842.34;;;0.49;85.74
59487;BME280;45298;54.918;73.504;2022-10-23T13:20:54;100806.84;;;0.27;85.64
59487;BME280;45298;54.918;73.504;2022-10-23T13:23:31;100810.34;;;0.26;85.84
59487;BME280;45298;54.918;73.504;2022-10-23T13:26:04;100852.78;;;0.49;85.78
59487;BME280;45298;54.918;73.504;2022-10-23T13:28:40;100851.97;;;0.42;85.68
59487;BME280;45298;54.918;73.504;2022-10-23T13:33:45;100829.47;;;0.21;85.61
59487;BME280;45298;54.918;73.504;2022-10-23T13:41:32;100858.97;;;0.30;85.17
59487;BME280;45298;54.918;73.504;2022-10-23T13:44:02;100885.06;;;0.37;85.00
59487;BME280;45298;54.918;73.504;2022-10-23T13:46:31;100842.56;;;0.13;84.76
59487;BME280;45298;54.918;73.504;2022-10-23T13:49:00;100827.84;;;0.04;85.59
59487;BME280;45298;54.918;73.504;2022-10-23T13:51:35;100879.00;;;0.33;85.13
59487;BME280;45298;54.918;73.504;2022-10-23T13:54:28;100891.16;;;0.37;85.03
59487;BME280;45298;54.918;73.504;2022-10-23T13:56:59;100907.66;;;0.41;85.14
59487;BME280;45298;54.918;73.504;2022-10-23T13:59:27;100891.19;;;0.31;84.95
59487;BME280;45298;54.918;73.504;2022-10-23T14:01:58;100892.03;;;0.32;84.76
59487;BME280;45298;54.918;73.504;2022-10-23T14:04:28;100901.63;;;0.31;84.84
59487;BME280;45298;54.918;73.504;2022-10-23T14:06:57;100889.47;;;0.21;84.63
59487;BME280;45298;54.918;73.504;2022-10-23T14:09:25;100910.31;;;0.32;84.55
59487;BME280;45298;54.918;73.504;2022-10-23T14:11:54;100912.91;;;0.32;84.08
59487;BME280;45298;54.918;73.504;2022-10-23T14:14:22;100910.34;;;0.27;84.43
59487;BME280;45298;54.918;73.504;2022-10-23T14:16:51;100916.44;;;0.27;84.25
59487;BME280;45298;54.918;73.504;2022-10-23T14:19:20;100915.63;;;0.18;84.30
59487;BME280;45298;54.918;73.504;2022-10-23T14:21:49;100936.41;;;0.33;84.25
59487;BME280;45298;54.918;73.504;2022-10-23T14:24:17;100919.91;;;0.26;84.18
59487;BME280;45298;54.918;73.504;2022-10-23T14:26:46;100943.38;;;0.34;84.27
59487;BME280;45298;54.918;73.504;2022-10-23T14:29:14;100925.13;;;0.22;84.22
59487;BME280;45298;54.918;73.504;2022-10-23T14:31:50;100918.22;;;0.13;84.11
59487;BME280;45298;54.918;73.504;2022-10-23T14:34:19;100939.06;;;0.19;84.02
59487;BME280;45298;54.918;73.504;2022-10-23T14:36:47;100946.03;;;0.20;84.12
59487;BME280;45298;54.918;73.504;2022-10-23T14:39:30;100926.97;;;0.06;84.02
59487;BME280;45298;54.918;73.504;2022-10-23T14:41:58;100957.31;;;0.25;84.35
59487;BME280;45298;54.918;73.504;2022-10-23T14:44:27;100971.25;;;0.20;84.32
59487;BME280;45298;54.918;73.504;2022-10-23T14:46:56;100950.41;;;0.13;84.11
59487;BME280;45298;54.918;73.504;2022-10-23T14:49:26;100900.13;;;-0.18;84.06
59487;BME280;45298;54.918;73.504;2022-10-23T14:51:54;100958.25;;;0.13;83.98
59487;BME280;45298;54.918;73.504;2022-10-23T14:54:23;100942.63;;;0.04;84.08
59487;BME280;45298;54.918;73.504;2022-10-23T14:56:52;100927.03;;;-0.08;84.04
59487;BME280;45298;54.918;73.504;2022-10-23T14:59:20;100977.34;;;0.20;84.05
59487;BME280;45298;54.918;73.504;2022-10-23T15:01:49;100953.94;;;0.08;84.37
59487;BME280;45298;54.918;73.504;2022-10-23T15:04:20;100984.31;;;0.21;84.23
59487;BME280;45298;54.918;73.504;2022-10-23T15:06:50;100965.19;;;0.10;84.23
59487;BME280;45298;54.918;73.504;2022-10-23T15:09:20;100985.19;;;0.17;83.99
59487;BME280;45298;54.918;73.504;2022-10-23T15:11:51;100983.47;;;0.14;nan
59487;BME280;45298;54.918;73.504;2022-10-23T15:14:21;100982.59;;;0.09;84.04
59487;BME280;45298;54.918;73.504;2022-10-23T15:16:53;100964.38;;;-0.05;84.12